| time (UTC) | temp C | wind direction | speed KPH | gust KPH | rain 1hr cm | rain 24hr cm | rain mn cm | humidity % | barometer mb |
| 20260508213552 | 23 | 135 | 1.6 | 6.4 | 0.00 | 0.00 | 0.00 | 21 | 1019.5 |
| 20260508213035 | 23 | 158 | 3.2 | 12.9 | 0.00 | 0.00 | 0.00 | 21 | 1019.2 |
| 20260508212532 | 23 | 135 | 8.0 | 17.7 | 0.00 | 0.00 | 0.00 | 21 | 1019.4 |
| 20260508212034 | 23 | 135 | 6.4 | 14.5 | 0.00 | 0.00 | 0.00 | 21 | 1019.3 |
| 20260508211534 | 23 | 203 | 4.8 | 14.5 | 0.00 | 0.00 | 0.00 | 22 | 1019.4 |
| 20260508211035 | 23 | 113 | 1.6 | 14.5 | 0.00 | 0.00 | 0.00 | 21 | 1019.3 |
| 20260508210533 | 23 | 113 | 4.8 | 16.1 | 0.00 | 0.00 | 0.00 | 22 | 1019.5 |
| 20260508210034 | 23 | 113 | 6.4 | 17.7 | 0.00 | 0.00 | 0.00 | 22 | 1019.5 |
| 20260508205533 | 23 | 135 | 6.4 | 19.3 | 0.00 | 0.00 | 0.00 | 21 | 1019.6 |
| 20260508205035 | 23 | 203 | 4.8 | 16.1 | 0.00 | 0.00 | 0.00 | 22 | 1019.6 |
| 20260508204533 | 23 | 135 | 6.4 | 17.7 | 0.00 | 0.00 | 0.00 | 22 | 1019.9 |
| 20260508204035 | 23 | 158 | 4.8 | 16.1 | 0.00 | 0.00 | 0.00 | 22 | 1019.9 |
| 20260508203535 | 23 | 158 | 3.2 | 9.7 | 0.00 | 0.00 | 0.00 | 22 | 1020.0 |
| 20260508203034 | 23 | 135 | 3.2 | 9.7 | 0.00 | 0.00 | 0.00 | 22 | 1019.8 |
| 20260508202532 | 22 | 113 | 6.4 | 19.3 | 0.00 | 0.00 | 0.00 | 22 | 1019.8 |
| 20260508202034 | 23 | 158 | 3.2 | 9.7 | 0.00 | 0.00 | 0.00 | 22 | 1020.1 |
| 20260508201533 | 22 | 135 | 4.8 | 14.5 | 0.00 | 0.00 | 0.00 | 22 | 1020.2 |
| 20260508201054 | 22 | 135 | 8.0 | 19.3 | 0.00 | 0.00 | 0.00 | 22 | 1020.2 |
| 20260508200534 | 22 | 225 | 3.2 | 11.3 | 0.00 | 0.00 | 0.00 | 23 | 1020.3 |
| 20260508200056 | 22 | 113 | 4.8 | 14.5 | 0.00 | 0.00 | 0.00 | 21 | 1020.3 |
| 20260508195554 | 22 | 158 | 3.2 | 9.7 | 0.00 | 0.00 | 0.00 | 22 | 1020.3 |
| 20260508195056 | 22 | 158 | 6.4 | 17.7 | 0.00 | 0.00 | 0.00 | 21 | 1020.3 |
| 20260508194533 | 22 | 135 | 3.2 | 12.9 | 0.00 | 0.00 | 0.00 | 22 | 1020.3 |
| 20260508194033 | 22 | 135 | 6.4 | 14.5 | 0.00 | 0.00 | 0.00 | 23 | 1020.4 |
| 20260508193533 | 22 | 158 | 4.8 | 16.1 | 0.00 | 0.00 | 0.00 | 25 | 1020.3 |
| 20260508193033 | 22 | 158 | 1.6 | 6.4 | 0.00 | 0.00 | 0.00 | 23 | 1020.4 |
| 20260508192534 | 22 | 135 | 4.8 | 22.5 | 0.00 | 0.00 | 0.00 | 24 | 1020.5 |
| 20260508192033 | 22 | 135 | 4.8 | 11.3 | 0.00 | 0.00 | 0.00 | 24 | 1020.5 |
| 20260508191534 | 22 | 135 | 6.4 | 14.5 | 0.00 | 0.00 | 0.00 | 25 | 1020.6 |
| 20260508191033 | 21 | 135 | 4.8 | 12.9 | 0.00 | 0.00 | 0.00 | 25 | 1020.6 |
| 20260508190535 | 21 | 158 | 4.8 | 12.9 | 0.00 | 0.00 | 0.00 | 26 | 1020.6 |
| 20260508190034 | 21 | 158 | 3.2 | 11.3 | 0.00 | 0.00 | 0.00 | 27 | 1020.8 |
| 20260508185535 | 21 | 135 | 3.2 | 11.3 | 0.00 | 0.00 | 0.00 | 26 | 1020.8 |
| 20260508185034 | 21 | 158 | 4.8 | 11.3 | 0.00 | 0.00 | 0.00 | 26 | 1020.8 |
| 20260508184534 | 21 | 113 | 4.8 | 12.9 | 0.00 | 0.00 | 0.00 | 25 | 1020.8 |
| 20260508184035 | 21 | 113 | 8.0 | 17.7 | 0.00 | 0.00 | 0.00 | 24 | 1020.8 |
| 20260508183533 | 21 | 113 | 8.0 | 22.5 | 0.00 | 0.00 | 0.00 | 25 | 1020.8 |
| 20260508183035 | 21 | 135 | 8.0 | 19.3 | 0.00 | 0.00 | 0.00 | 25 | 1020.9 |
| 20260508182533 | 21 | 135 | 6.4 | 12.9 | 0.00 | 0.00 | 0.00 | 25 | 1020.8 |
| 20260508182034 | 21 | 113 | 4.8 | 12.9 | 0.00 | 0.00 | 0.00 | 27 | 1020.8 |
| 20260508181533 | 21 | 135 | 8.0 | 22.5 | 0.00 | 0.00 | 0.00 | 25 | 1020.5 |
| 20260508181033 | 21 | 135 | 4.8 | 12.9 | 0.00 | 0.00 | 0.00 | 26 | 1020.6 |
| 20260508180555 | 21 | 113 | 3.2 | 12.9 | 0.00 | 0.00 | 0.00 | 26 | 1020.9 |
| 20260508180035 | 21 | 203 | 1.6 | 8.0 | 0.00 | 0.00 | 0.00 | 26 | 1021.0 |
| 20260508175551 | 21 | 135 | 4.8 | 11.3 | 0.00 | 0.00 | 0.00 | 27 | 1021.0 |
| 20260508175034 | 21 | 158 | 1.6 | 9.7 | 0.00 | 0.00 | 0.00 | 28 | 1021.0 |
| 20260508174534 | 20 | 158 | 3.2 | 9.7 | 0.00 | 0.00 | 0.00 | 28 | 1020.7 |
| 20260508174034 | 20 | 203 | 3.2 | 8.0 | 0.00 | 0.00 | 0.00 | 33 | 1021.1 |
| 20260508173531 | 20 | 135 | 3.2 | 9.7 | 0.00 | 0.00 | 0.00 | 33 | 1021.1 |
| 20260508173033 | 20 | 135 | 3.2 | 9.7 | 0.00 | 0.00 | 0.00 | 31 | 1021.1 |
| 20260508172554 | 20 | 135 | 3.2 | 16.1 | 0.00 | 0.00 | 0.00 | 30 | 1021.1 |
| 20260508172032 | 20 | 135 | 1.6 | 11.3 | 0.00 | 0.00 | 0.00 | 29 | 1021.3 |
| 20260508171534 | 21 | 113 | 1.6 | 6.4 | 0.00 | 0.00 | 0.00 | 29 | 1021.2 |
| 20260508171054 | 21 | 135 | 1.6 | 11.3 | 0.00 | 0.00 | 0.00 | 28 | 1021.2 |
| 20260508170534 | 20 | 158 | 3.2 | 9.7 | 0.00 | 0.00 | 0.00 | 29 | 1021.1 |
| 20260508170033 | 21 | 0.0 | 9.7 | 0.00 | 0.00 | 0.00 | 30 | 1021.2 | |
| 20260508165534 | 20 | 158 | 1.6 | 9.7 | 0.00 | 0.00 | 0.00 | 29 | 1021.1 |
| 20260508165034 | 20 | 135 | 1.6 | 8.0 | 0.00 | 0.00 | 0.00 | 32 | 1021.4 |
| 20260508164534 | 20 | 135 | 1.6 | 8.0 | 0.00 | 0.00 | 0.00 | 30 | 1021.4 |
| 20260508164032 | 21 | 135 | 1.6 | 3.2 | 0.00 | 0.00 | 0.00 | 32 | 1021.7 |
| 20260508163535 | 20 | 113 | 1.6 | 4.8 | 0.00 | 0.00 | 0.00 | 33 | 1021.4 |
| 20260508163053 | 20 | 0.0 | 4.8 | 0.00 | 0.00 | 0.00 | 33 | 1021.7 | |
| 20260508162535 | 20 | 0.0 | 6.4 | 0.00 | 0.00 | 0.00 | 33 | 1021.3 | |
| 20260508162034 | 20 | 135 | 1.6 | 3.2 | 0.00 | 0.00 | 0.00 | 31 | 1021.3 |
| 20260508161535 | 20 | 113 | 1.6 | 4.8 | 0.00 | 0.00 | 0.00 | 32 | 1021.6 |
| 20260508161035 | 20 | 0.0 | 3.2 | 0.00 | 0.00 | 0.00 | 33 | 1021.5 | |
| 20260508160534 | 20 | 0.0 | 4.8 | 0.00 | 0.00 | 0.00 | 33 | 1021.2 | |
| 20260508160034 | 20 | 0.0 | 3.2 | 0.00 | 0.00 | 0.00 | 32 | 1021.1 | |
| 20260508155553 | 20 | 0.0 | 1.6 | 0.00 | 0.00 | 0.00 | 35 | 1021.1 | |
| 20260508155034 | 20 | 0.0 | 3.2 | 0.00 | 0.00 | 0.00 | 34 | 1021.1 | |
| 20260508154552 | 20 | 0.0 | 1.6 | 0.00 | 0.00 | 0.00 | 33 | 1021.1 | |
| 20260508154035 | 20 | 0.0 | 1.6 | 0.00 | 0.00 | 0.00 | 33 | 1021.1 | |
| 20260508153553 | 19 | 0.0 | 1.6 | 0.00 | 0.00 | 0.00 | 34 | 1021.1 | |
| 20260508153034 | 19 | 0.0 | 1.6 | 0.00 | 0.00 | 0.00 | 33 | 1021.0 | |
| 20260508152534 | 19 | 0.0 | 0.0 | 0.00 | 0.00 | 0.00 | 34 | 1021.0 | |
| 20260508152035 | 18 | 0.0 | 1.6 | 0.00 | 0.00 | 0.00 | 35 | 1021.1 | |
| 20260508151533 | 19 | 0.0 | 1.6 | 0.00 | 0.00 | 0.00 | 35 | 1021.1 | |
| 20260508151033 | 19 | 0.0 | 0.0 | 0.00 | 0.00 | 0.00 | 33 | 1021.3 | |
| 20260508150535 | 19 | 0.0 | 1.6 | 0.00 | 0.00 | 0.00 | 34 | 1021.2 | |
| 20260508150035 | 18 | 0.0 | 0.0 | 0.00 | 0.00 | 0.00 | 35 | 1020.9 | |
| 20260508145533 | 18 | 0.0 | 0.0 | 0.00 | 0.00 | 0.00 | 36 | 1021.2 | |
| 20260508145033 | 18 | 0.0 | 0.0 | 0.00 | 0.00 | 0.00 | 38 | 1021.2 | |
| 20260508144532 | 18 | 0.0 | 0.0 | 0.00 | 0.00 | 0.00 | 38 | 1020.9 | |
| 20260508144034 | 17 | 0.0 | 0.0 | 0.00 | 0.00 | 0.00 | 37 | 1020.9 | |
| 20260508143553 | 17 | 0.0 | 0.0 | 0.00 | 0.00 | 0.00 | 38 | 1021.2 | |
| 20260508143034 | 17 | 0.0 | 0.0 | 0.00 | 0.00 | 0.00 | 40 | 1021.3 | |
| 20260508142552 | 17 | 0.0 | 0.0 | 0.00 | 0.00 | 0.00 | 39 | 1021.2 | |
| 20260508142054 | 16 | 0.0 | 0.0 | 0.00 | 0.00 | 0.00 | 41 | 1021.2 | |
| 20260508141533 | 16 | 0.0 | 0.0 | 0.00 | 0.00 | 0.00 | 42 | 1021.1 | |
| 20260508141034 | 16 | 0.0 | 0.0 | 0.00 | 0.00 | 0.00 | 44 | 1021.1 | |
| 20260508140534 | 15 | 0.0 | 0.0 | 0.00 | 0.00 | 0.00 | 46 | 1021.1 | |
| 20260508140033 | 15 | 0.0 | 0.0 | 0.00 | 0.00 | 0.00 | 49 | 1021.1 | |
| 20260508135533 | 14 | 0.0 | 0.0 | 0.00 | 0.00 | 0.00 | 52 | 1020.8 | |
| 20260508135031 | 13 | 0.0 | 0.0 | 0.00 | 0.00 | 0.00 | 54 | 1020.7 | |
| 20260508134534 | 12 | 0.0 | 0.0 | 0.00 | 0.00 | 0.00 | 55 | 1020.7 | |
| 20260508134032 | 12 | 0.0 | 0.0 | 0.00 | 0.00 | 0.00 | 56 | 1020.6 | |
| 20260508133555 | 11 | 0.0 | 0.0 | 0.00 | 0.00 | 0.00 | 58 | 1020.2 | |
| 20260508133031 | 10 | 0.0 | 0.0 | 0.00 | 0.00 | 0.00 | 61 | 1019.8 | |
| 20260508132534 | 9 | 0.0 | 0.0 | 0.00 | 0.00 | 0.00 | 66 | 1019.6 | |
| 20260508132035 | 8 | 0.0 | 0.0 | 0.00 | 0.00 | 0.00 | 68 | 1019.5 | |
| 20260508131533 | 8 | 0.0 | 0.0 | 0.00 | 0.00 | 0.00 | 68 | 1019.5 | |
| 20260508131033 | 8 | 0.0 | 0.0 | 0.00 | 0.00 | 0.00 | 68 | 1019.4 | |
| 20260508130532 | 8 | 0.0 | 0.0 | 0.00 | 0.00 | 0.00 | 69 | 1019.1 | |
| 20260508130035 | 8 | 0.0 | 0.0 | 0.00 | 0.00 | 0.00 | 69 | 1019.0 | |
| 20260508125533 | 7 | 0.0 | 0.0 | 0.00 | 0.00 | 0.00 | 70 | 1019.0 | |
| 20260508125035 | 7 | 0.0 | 0.0 | 0.00 | 0.00 | 0.00 | 71 | 1019.0 | |
| 20260508124534 | 7 | 0.0 | 0.0 | 0.00 | 0.00 | 0.00 | 71 | 1018.6 | |
| 20260508124034 | 7 | 0.0 | 0.0 | 0.00 | 0.00 | 0.00 | 71 | 1018.5 | |
| 20260508123533 | 7 | 0.0 | 0.0 | 0.00 | 0.00 | 0.00 | 70 | 1018.5 | |
| 20260508123034 | 7 | 0.0 | 0.0 | 0.00 | 0.00 | 0.00 | 70 | 1018.5 | |
| 20260508122533 | 7 | 0.0 | 0.0 | 0.00 | 0.00 | 0.00 | 69 | 1018.4 | |
| 20260508122033 | 7 | 0.0 | 0.0 | 0.00 | 0.00 | 0.00 | 68 | 1018.3 | |
| 20260508121533 | 8 | 0.0 | 0.0 | 0.00 | 0.00 | 0.00 | 68 | 1018.3 | |
| 20260508121035 | 8 | 0.0 | 0.0 | 0.00 | 0.00 | 0.00 | 69 | 1018.3 | |
| 20260508120534 | 7 | 0.0 | 0.0 | 0.00 | 0.00 | 0.00 | 69 | 1018.6 | |
| 20260508120054 | 7 | 0.0 | 0.0 | 0.00 | 0.00 | 0.00 | 68 | 1018.6 | |
| 20260508115531 | 8 | 0.0 | 0.0 | 0.00 | 0.00 | 0.00 | 68 | 1018.6 | |
| 20260508115034 | 8 | 0.0 | 0.0 | 0.00 | 0.00 | 0.00 | 68 | 1018.6 | |
| 20260508114535 | 8 | 0.0 | 0.0 | 0.00 | 0.00 | 0.00 | 68 | 1018.6 | |
| 20260508114054 | 8 | 0.0 | 0.0 | 0.00 | 0.00 | 0.00 | 69 | 1018.5 | |
| 20260508113533 | 8 | 0.0 | 0.0 | 0.00 | 0.00 | 0.00 | 71 | 1018.5 | |
| 20260508113034 | 8 | 0.0 | 0.0 | 0.00 | 0.00 | 0.00 | 70 | 1018.8 | |
| 20260508112533 | 8 | 0.0 | 0.0 | 0.00 | 0.00 | 0.00 | 70 | 1018.8 | |
| 20260508112031 | 8 | 0.0 | 0.0 | 0.00 | 0.00 | 0.00 | 69 | 1018.8 | |
| 20260508111534 | 8 | 0.0 | 0.0 | 0.00 | 0.00 | 0.00 | 69 | 1018.8 | |
| 20260508111034 | 8 | 0.0 | 0.0 | 0.00 | 0.00 | 0.00 | 68 | 1018.5 | |
| 20260508110533 | 8 | 0.0 | 0.0 | 0.00 | 0.00 | 0.00 | 67 | 1018.4 | |
| 20260508110032 | 8 | 0.0 | 0.0 | 0.00 | 0.00 | 0.00 | 66 | 1018.4 | |
| 20260508105533 | 8 | 0.0 | 0.0 | 0.00 | 0.00 | 0.00 | 66 | 1018.4 | |
| 20260508105033 | 8 | 0.0 | 0.0 | 0.00 | 0.00 | 0.00 | 66 | 1018.6 | |
| 20260508104534 | 8 | 0.0 | 0.0 | 0.00 | 0.00 | 0.00 | 64 | 1018.6 | |
| 20260508104034 | 8 | 0.0 | 0.0 | 0.00 | 0.00 | 0.00 | 64 | 1018.6 | |
| 20260508103555 | 8 | 0.0 | 0.0 | 0.00 | 0.00 | 0.00 | 63 | 1018.5 | |
| 20260508103032 | 8 | 0.0 | 0.0 | 0.00 | 0.00 | 0.00 | 64 | 1018.6 | |
| 20260508102534 | 8 | 0.0 | 0.0 | 0.00 | 0.00 | 0.00 | 64 | 1018.5 | |
| 20260508102033 | 8 | 0.0 | 0.0 | 0.00 | 0.00 | 0.00 | 64 | 1018.6 | |
| 20260508101535 | 8 | 0.0 | 0.0 | 0.00 | 0.00 | 0.00 | 64 | 1018.6 | |
| 20260508101054 | 8 | 0.0 | 0.0 | 0.00 | 0.00 | 0.00 | 63 | 1018.6 | |
| 20260508100535 | 9 | 0.0 | 0.0 | 0.00 | 0.00 | 0.00 | 63 | 1018.5 | |
| 20260508100054 | 9 | 0.0 | 0.0 | 0.00 | 0.00 | 0.00 | 62 | 1018.7 | |
| 20260508095533 | 9 | 0.0 | 0.0 | 0.00 | 0.00 | 0.00 | 61 | 1018.5 | |
| 20260508095035 | 9 | 0.0 | 0.0 | 0.00 | 0.00 | 0.00 | 62 | 1018.3 | |
| 20260508094533 | 9 | 0.0 | 0.0 | 0.00 | 0.00 | 0.00 | 62 | 1018.4 | |
| 20260508094033 | 9 | 0.0 | 0.0 | 0.00 | 0.00 | 0.00 | 61 | 1018.6 | |
| 20260508093532 | 9 | 0.0 | 0.0 | 0.00 | 0.00 | 0.00 | 62 | 1018.6 | |
| 20260508093035 | 9 | 0.0 | 0.0 | 0.00 | 0.00 | 0.00 | 62 | 1018.3 | |
| 20260508092535 | 9 | 0.0 | 0.0 | 0.00 | 0.00 | 0.00 | 62 | 1018.3 | |
| 20260508092033 | 10 | 0.0 | 0.0 | 0.00 | 0.00 | 0.00 | 61 | 1018.3 | |
| 20260508091532 | 9 | 0.0 | 0.0 | 0.00 | 0.00 | 0.00 | 62 | 1018.2 | |
| 20260508091054 | 9 | 0.0 | 0.0 | 0.00 | 0.00 | 0.00 | 62 | 1018.6 | |
| 20260508090533 | 9 | 0.0 | 0.0 | 0.00 | 0.00 | 0.00 | 64 | 1018.6 | |
| 20260508090055 | 9 | 0.0 | 0.0 | 0.00 | 0.00 | 0.00 | 64 | 1018.3 | |
| 20260508085532 | 9 | 0.0 | 0.0 | 0.00 | 0.00 | 0.00 | 63 | 1018.3 | |
| 20260508085033 | 9 | 0.0 | 0.0 | 0.00 | 0.00 | 0.00 | 61 | 1018.3 | |
| 20260508084533 | 10 | 0.0 | 0.0 | 0.00 | 0.00 | 0.00 | 61 | 1018.3 | |
| 20260508084034 | 10 | 0.0 | 0.0 | 0.00 | 0.00 | 0.00 | 60 | 1018.7 | |
| 20260508083532 | 10 | 0.0 | 0.0 | 0.00 | 0.00 | 0.00 | 59 | 1018.7 | |
| 20260508083034 | 10 | 0.0 | 0.0 | 0.00 | 0.00 | 0.00 | 60 | 1018.7 | |
| 20260508082534 | 10 | 0.0 | 0.0 | 0.00 | 0.00 | 0.00 | 60 | 1018.7 | |
| 20260508082031 | 10 | 0.0 | 0.0 | 0.00 | 0.00 | 0.00 | 59 | 1018.3 | |
| 20260508081533 | 10 | 0.0 | 0.0 | 0.00 | 0.00 | 0.00 | 59 | 1018.7 | |
| 20260508081034 | 10 | 0.0 | 0.0 | 0.00 | 0.00 | 0.00 | 58 | 1018.6 | |
| 20260508080535 | 10 | 0.0 | 0.0 | 0.00 | 0.00 | 0.00 | 58 | 1018.6 | |
| 20260508080034 | 10 | 0.0 | 0.0 | 0.00 | 0.00 | 0.00 | 58 | 1018.6 | |
| 20260508075533 | 11 | 0.0 | 0.0 | 0.00 | 0.00 | 0.00 | 57 | 1018.9 | |
| 20260508075055 | 11 | 0.0 | 0.0 | 0.00 | 0.00 | 0.00 | 56 | 1018.5 | |
| 20260508074531 | 11 | 0.0 | 0.0 | 0.00 | 0.00 | 0.00 | 55 | 1018.5 | |
| 20260508074054 | 11 | 0.0 | 0.0 | 0.00 | 0.00 | 0.00 | 56 | 1018.5 | |
| 20260508073532 | 11 | 0.0 | 0.0 | 0.00 | 0.00 | 0.00 | 54 | 1018.5 | |
| 20260508073035 | 11 | 0.0 | 0.0 | 0.00 | 0.00 | 0.00 | 54 | 1018.8 | |
| 20260508072533 | 11 | 0.0 | 0.0 | 0.00 | 0.00 | 0.00 | 54 | 1018.7 | |
| 20260508072033 | 11 | 0.0 | 0.0 | 0.00 | 0.00 | 0.00 | 52 | 1018.7 | |
| 20260508071534 | 12 | 0.0 | 0.0 | 0.00 | 0.00 | 0.00 | 52 | 1018.7 | |
| 20260508071034 | 12 | 0.0 | 0.0 | 0.00 | 0.00 | 0.00 | 52 | 1018.8 | |
| 20260508070535 | 12 | 0.0 | 0.0 | 0.00 | 0.00 | 0.00 | 51 | 1018.7 | |
| 20260508070032 | 12 | 0.0 | 0.0 | 0.00 | 0.00 | 0.00 | 52 | 1018.7 | |
| 20260508065555 | 12 | 0.0 | 1.6 | 0.00 | 0.00 | 0.00 | 51 | 1018.7 | |
| 20260508065054 | 12 | 0.0 | 0.0 | 0.00 | 0.00 | 0.00 | 51 | 1018.4 | |
| 20260508064533 | 12 | 0.0 | 0.0 | 0.00 | 0.00 | 0.00 | 51 | 1018.4 | |
| 20260508064034 | 12 | 0.0 | 1.6 | 0.00 | 0.00 | 0.00 | 50 | 1018.4 | |
| 20260508063552 | 12 | 0.0 | 0.0 | 0.00 | 0.00 | 0.00 | 52 | 1018.4 | |
| 20260508063055 | 12 | 0.0 | 0.0 | 0.00 | 0.00 | 0.00 | 52 | 1018.4 | |
| 20260508062534 | 11 | 0.0 | 0.0 | 0.00 | 0.00 | 0.00 | 53 | 1018.4 | |
| 20260508062035 | 11 | 0.0 | 0.0 | 0.00 | 0.00 | 0.00 | 54 | 1018.4 | |
| 20260508061552 | 11 | 0.0 | 0.0 | 0.00 | 0.00 | 0.00 | 54 | 1018.2 | |
| 20260508061034 | 11 | 0.0 | 0.0 | 0.00 | 0.00 | 0.00 | 53 | 1018.0 | |
| 20260508060535 | 12 | 0.0 | 0.0 | 0.00 | 0.00 | 0.00 | 53 | 1018.4 | |
| 20260508060035 | 12 | 0.0 | 0.0 | 0.00 | 0.00 | 0.00 | 52 | 1018.1 | |
| 20260508055553 | 12 | 0.0 | 0.0 | 0.00 | 0.00 | 0.00 | 51 | 1018.0 | |
| 20260508055033 | 12 | 0.0 | 0.0 | 0.00 | 0.00 | 0.00 | 52 | 1017.9 | |
| 20260508054535 | 12 | 0.0 | 0.0 | 0.00 | 0.00 | 0.00 | 51 | 1017.5 | |
| 20260508054033 | 12 | 0.0 | 0.0 | 0.00 | 0.00 | 0.00 | 50 | 1017.5 | |
| 20260508053533 | 12 | 0.0 | 0.0 | 0.00 | 0.00 | 0.00 | 49 | 1017.5 | |
| 20260508053033 | 13 | 0.0 | 0.0 | 0.00 | 0.00 | 0.00 | 48 | 1017.8 | |
| 20260508052533 | 13 | 0.0 | 0.0 | 0.00 | 0.00 | 0.00 | 48 | 1017.7 | |
| 20260508052032 | 13 | 0.0 | 0.0 | 0.00 | 0.00 | 0.00 | 47 | 1017.8 | |
| 20260508051533 | 13 | 0.0 | 0.0 | 0.00 | 0.00 | 0.00 | 46 | 1017.4 | |
| 20260508051031 | 13 | 0.0 | 0.0 | 0.00 | 0.00 | 0.00 | 46 | 1017.4 | |
| 20260508050534 | 14 | 0.0 | 0.0 | 0.00 | 0.00 | 0.00 | 44 | 1017.4 | |
| 20260508050032 | 14 | 0.0 | 0.0 | 0.00 | 0.00 | 0.00 | 43 | 1017.3 | |
| 20260508045535 | 14 | 0.0 | 0.0 | 0.00 | 0.00 | 0.00 | 44 | 1017.3 | |
| 20260508045112 | 15 | 0.0 | 0.0 | 0.00 | 0.00 | 0.00 | 43 | 1017.4 | |
| 20260508044535 | 15 | 0.0 | 0.0 | 0.00 | 0.00 | 0.00 | 41 | 1017.8 | |
| 20260508044032 | 15 | 0.0 | 0.0 | 0.00 | 0.00 | 0.00 | 40 | 1017.4 | |
| 20260508043555 | 15 | 0.0 | 0.0 | 0.00 | 0.00 | 0.00 | 40 | 1017.4 | |
| 20260508043035 | 16 | 0.0 | 1.6 | 0.00 | 0.00 | 0.00 | 39 | 1017.7 | |
| 20260508042554 | 15 | 0.0 | 0.0 | 0.00 | 0.00 | 0.00 | 39 | 1017.3 | |
| 20260508042032 | 15 | 0.0 | 0.0 | 0.00 | 0.00 | 0.00 | 41 | 1017.3 | |
| 20260508041535 | 16 | 0.0 | 1.6 | 0.00 | 0.00 | 0.00 | 39 | 1017.3 | |
| 20260508041034 | 16 | 0.0 | 1.6 | 0.00 | 0.00 | 0.00 | 39 | 1017.3 | |
| 20260508040555 | 16 | 0.0 | 0.0 | 0.00 | 0.00 | 0.00 | 39 | 1017.3 | |
| 20260508040034 | 16 | 0.0 | 0.0 | 0.00 | 0.00 | 0.00 | 39 | 1017.3 | |
| 20260508035555 | 16 | 0.0 | 0.0 | 0.00 | 0.00 | 0.00 | 38 | 1017.2 | |
| 20260508035031 | 16 | 0.0 | 0.0 | 0.00 | 0.00 | 0.00 | 38 | 1017.2 | |
| 20260508034555 | 16 | 0.0 | 0.0 | 0.00 | 0.00 | 0.00 | 39 | 1017.1 | |
| 20260508034033 | 16 | 0.0 | 0.0 | 0.00 | 0.00 | 0.00 | 38 | 1017.1 | |
| 20260508033534 | 16 | 0.0 | 0.0 | 0.00 | 0.00 | 0.00 | 39 | 1017.1 | |
| 20260508033033 | 16 | 0.0 | 0.0 | 0.00 | 0.00 | 0.00 | 38 | 1017.1 | |
| 20260508032532 | 16 | 0.0 | 1.6 | 0.00 | 0.00 | 0.00 | 38 | 1017.1 | |
| 20260508032054 | 16 | 0.0 | 0.0 | 0.00 | 0.00 | 0.00 | 38 | 1017.0 | |
| 20260508031532 | 16 | 0.0 | 0.0 | 0.00 | 0.00 | 0.00 | 38 | 1016.7 | |
| 20260508031055 | 17 | 0.0 | 0.0 | 0.00 | 0.00 | 0.00 | 38 | 1016.6 | |
| 20260508030534 | 17 | 0.0 | 0.0 | 0.00 | 0.00 | 0.00 | 38 | 1016.6 | |
| 20260508030033 | 17 | 0.0 | 0.0 | 0.00 | 0.00 | 0.00 | 37 | 1016.6 | |
| 20260508025554 | 17 | 0.0 | 0.0 | 0.00 | 0.00 | 0.00 | 37 | 1016.6 | |
| 20260508025033 | 18 | 0.0 | 0.0 | 0.00 | 0.00 | 0.00 | 36 | 1016.9 | |
| 20260508024533 | 18 | 0.0 | 0.0 | 0.00 | 0.00 | 0.00 | 35 | 1016.9 | |
| 20260508024053 | 18 | 0.0 | 0.0 | 0.00 | 0.00 | 0.00 | 35 | 1016.9 | |
| 20260508023613 | 18 | 0.0 | 0.0 | 0.00 | 0.00 | 0.00 | 35 | 1016.9 | |
| 20260508023052 | 19 | 0.0 | 0.0 | 0.00 | 0.00 | 0.00 | 33 | 1016.8 | |
| 20260508022554 | 20 | 0.0 | 0.0 | 0.00 | 0.00 | 0.00 | 31 | 1017.1 | |
| 20260508022032 | 20 | 0.0 | 0.0 | 0.00 | 0.00 | 0.00 | 30 | 1017.1 | |
| 20260508021534 | 21 | 0.0 | 0.0 | 0.00 | 0.00 | 0.00 | 29 | 1017.3 | |
| 20260508021032 | 21 | 0.0 | 0.0 | 0.00 | 0.00 | 0.00 | 28 | 1017.3 | |
| 20260508020533 | 22 | 0.0 | 0.0 | 0.00 | 0.00 | 0.00 | 27 | 1017.3 | |
| 20260508020033 | 22 | 0.0 | 0.0 | 0.00 | 0.00 | 0.00 | 25 | 1017.5 | |
| 20260508015535 | 22 | 0.0 | 0.0 | 0.00 | 0.00 | 0.00 | 25 | 1017.2 | |
| 20260508015035 | 22 | 0.0 | 0.0 | 0.00 | 0.00 | 0.00 | 24 | 1017.5 | |
| 20260508014553 | 22 | 0.0 | 0.0 | 0.00 | 0.00 | 0.00 | 24 | 1017.2 | |
| 20260508014033 | 23 | 0.0 | 3.2 | 0.00 | 0.00 | 0.00 | 23 | 1017.2 | |
| 20260508013533 | 23 | 0.0 | 1.6 | 0.00 | 0.00 | 0.00 | 24 | 1016.9 | |
| 20260508013034 | 23 | 0.0 | 1.6 | 0.00 | 0.00 | 0.00 | 24 | 1016.6 | |
| 20260508012535 | 23 | 0.0 | 3.2 | 0.00 | 0.00 | 0.00 | 23 | 1016.4 | |
| 20260508012052 | 23 | 0.0 | 3.2 | 0.00 | 0.00 | 0.00 | 22 | 1016.3 | |
| 20260508011554 | 23 | 0.0 | 3.2 | 0.00 | 0.00 | 0.00 | 23 | 1016.6 | |
| 20260508011031 | 23 | 0.0 | 1.6 | 0.00 | 0.00 | 0.00 | 23 | 1016.6 | |
| 20260508010533 | 23 | 0.0 | 3.2 | 0.00 | 0.00 | 0.00 | 23 | 1016.3 | |
| 20260508010056 | 23 | 0.0 | 3.2 | 0.00 | 0.00 | 0.00 | 24 | 1016.4 | |
| 20260508005533 | 23 | 0.0 | 1.6 | 0.00 | 0.00 | 0.00 | 23 | 1016.4 | |
| 20260508005034 | 23 | 0.0 | 4.8 | 0.00 | 0.00 | 0.00 | 24 | 1016.2 | |
| 20260508004533 | 22 | 0.0 | 4.8 | 0.00 | 0.00 | 0.00 | 25 | 1016.0 | |
| 20260508004035 | 22 | 0.0 | 3.2 | 0.00 | 0.00 | 0.00 | 25 | 1016.0 | |
| 20260508003532 | 22 | 0.0 | 1.6 | 0.00 | 0.00 | 0.00 | 24 | 1015.9 | |
| 20260508003035 | 22 | 0.0 | 1.6 | 0.00 | 0.00 | 0.00 | 25 | 1016.3 | |
| 20260508002533 | 22 | 0.0 | 1.6 | 0.00 | 0.00 | 0.00 | 24 | 1016.4 | |
| 20260508002034 | 22 | 0.0 | 1.6 | 0.00 | 0.00 | 0.00 | 24 | 1016.4 | |
| 20260508001533 | 22 | 0.0 | 0.0 | 0.00 | 0.00 | 0.00 | 25 | 1016.4 | |
| 20260508001033 | 22 | 0.0 | 3.2 | 0.00 | 0.00 | 0.00 | 25 | 1016.5 | |
| 20260508000533 | 23 | 0.0 | 0.0 | 0.00 | 0.00 | 0.00 | 23 | 1016.7 | |
| 20260508000033 | 23 | 0.0 | 0.0 | 0.00 | 0.00 | 0.00 | 24 | 1016.6 | |
| 20260507235532 | 22 | 0.0 | 1.6 | 0.00 | 0.00 | 0.00 | 24 | 1016.6 | |
| 20260507235033 | 22 | 0.0 | 3.2 | 0.00 | 0.00 | 0.00 | 23 | 1016.6 | |
| 20260507234532 | 23 | 135 | 1.6 | 4.8 | 0.00 | 0.00 | 0.00 | 24 | 1016.7 |
| 20260507234035 | 23 | 135 | 1.6 | 6.4 | 0.00 | 0.00 | 0.00 | 23 | 1016.7 |
| 20260507233533 | 23 | 203 | 1.6 | 6.4 | 0.00 | 0.00 | 0.00 | 23 | 1016.4 |
| 20260507233032 | 23 | 135 | 1.6 | 11.3 | 0.00 | 0.00 | 0.00 | 22 | 1016.7 |
| 20260507232555 | 23 | 0.0 | 4.8 | 0.00 | 0.00 | 0.00 | 23 | 1016.8 | |
| 20260507232053 | 23 | 203 | 1.6 | 9.7 | 0.00 | 0.00 | 0.00 | 24 | 1016.9 |
| 20260507231535 | 23 | 113 | 3.2 | 11.3 | 0.00 | 0.00 | 0.00 | 24 | 1016.9 |
| 20260507231032 | 23 | 0.0 | 4.8 | 0.00 | 0.00 | 0.00 | 24 | 1017.0 | |
| 20260507230533 | 23 | 225 | 1.6 | 8.0 | 0.00 | 0.00 | 0.00 | 24 | 1017.1 |
| 20260507230033 | 23 | 135 | 1.6 | 8.0 | 0.00 | 0.00 | 0.00 | 23 | 1017.2 |
| 20260507225533 | 23 | 113 | 3.2 | 9.7 | 0.00 | 0.00 | 0.00 | 24 | 1017.3 |
| 20260507225033 | 23 | 135 | 3.2 | 8.0 | 0.00 | 0.00 | 0.00 | 25 | 1017.3 |
| 20260507224534 | 23 | 225 | 3.2 | 11.3 | 0.00 | 0.00 | 0.00 | 26 | 1017.3 |
| 20260507224035 | 23 | 135 | 4.8 | 12.9 | 0.00 | 0.00 | 0.00 | 25 | 1017.4 |
| 20260507223533 | 23 | 135 | 1.6 | 8.0 | 0.00 | 0.00 | 0.00 | 25 | 1017.4 |
| 20260507223031 | 23 | 135 | 3.2 | 9.7 | 0.00 | 0.00 | 0.00 | 25 | 1017.2 |
| 20260507222534 | 23 | 135 | 3.2 | 9.7 | 0.00 | 0.00 | 0.00 | 25 | 1017.6 |
| 20260507222053 | 23 | 135 | 1.6 | 12.9 | 0.00 | 0.00 | 0.00 | 24 | 1017.6 |
| 20260507221535 | 23 | 135 | 3.2 | 12.9 | 0.00 | 0.00 | 0.00 | 25 | 1017.6 |
| 20260507221031 | 23 | 158 | 1.6 | 6.4 | 0.00 | 0.00 | 0.00 | 24 | 1017.5 |
| 20260507220555 | 23 | 135 | 3.2 | 14.5 | 0.00 | 0.00 | 0.00 | 23 | 1017.6 |
| 20260507220035 | 23 | 315 | 1.6 | 6.4 | 0.00 | 0.00 | 0.00 | 23 | 1017.7 |
| 20260507215614 | 23 | 0.0 | 3.2 | 0.00 | 0.00 | 0.00 | 22 | 1017.7 | |
| 20260507215033 | 23 | 135 | 3.2 | 12.9 | 0.00 | 0.00 | 0.00 | 23 | 1017.8 |
| 20260507214533 | 23 | 113 | 3.2 | 11.3 | 0.00 | 0.00 | 0.00 | 23 | 1017.8 |
| 20260507214033 | 23 | 113 | 1.6 | 9.7 | 0.00 | 0.00 | 0.00 | 24 | 1017.9 |